sensor_id;sensor_type;location;lat;lon;timestamp;pressure;altitude;pressure_sealevel;temperature;humidity
62708;BME280;48769;51.624;5.886;2024-01-15T00:01:02;100148.81;;;1.68;100.00
62708;BME280;48769;51.624;5.886;2024-01-15T00:03:27;100143.50;;;1.73;100.00
62708;BME280;48769;51.624;5.886;2024-01-15T00:05:52;100136.56;;;1.72;100.00
62708;BME280;48769;51.624;5.886;2024-01-15T00:08:18;100134.03;;;1.70;100.00
62708;BME280;48769;51.624;5.886;2024-01-15T00:10:43;100137.56;;;1.68;100.00
62708;BME280;48769;51.624;5.886;2024-01-15T00:13:08;100133.19;;;1.70;100.00
62708;BME280;48769;51.624;5.886;2024-01-15T00:15:34;100130.66;;;1.67;100.00
62708;BME280;48769;51.624;5.886;2024-01-15T00:17:59;100124.53;;;1.68;100.00
62708;BME280;48769;51.624;5.886;2024-01-15T00:20:24;100129.66;;;1.71;100.00
62708;BME280;48769;51.624;5.886;2024-01-15T00:22:49;100127.97;;;1.70;100.00
62708;BME280;48769;51.624;5.886;2024-01-15T00:25:15;100114.03;;;1.71;100.00
62708;BME280;48769;51.624;5.886;2024-01-15T00:27:40;100114.97;;;1.68;100.00
62708;BME280;48769;51.624;5.886;2024-01-15T00:30:06;100107.31;;;1.63;100.00
62708;BME280;48769;51.624;5.886;2024-01-15T00:32:31;100105.69;;;1.59;100.00
62708;BME280;48769;51.624;5.886;2024-01-15T00:34:57;100117.88;;;1.57;100.00
62708;BME280;48769;51.624;5.886;2024-01-15T00:37:22;100114.44;;;1.55;100.00
62708;BME280;48769;51.624;5.886;2024-01-15T00:39:47;100107.47;;;1.57;100.00
62708;BME280;48769;51.624;5.886;2024-01-15T00:42:13;100107.47;;;1.57;100.00
62708;BME280;48769;51.624;5.886;2024-01-15T00:44:38;100099.69;;;1.56;100.00
62708;BME280;48769;51.624;5.886;2024-01-15T00:47:03;100102.34;;;1.54;100.00
62708;BME280;48769;51.624;5.886;2024-01-15T00:49:29;100102.25;;;1.57;100.00
62708;BME280;48769;51.624;5.886;2024-01-15T00:51:54;100107.31;;;1.63;100.00
62708;BME280;48769;51.624;5.886;2024-01-15T00:54:19;100093.47;;;1.61;100.00
62708;BME280;48769;51.624;5.886;2024-01-15T00:56:45;100099.53;;;1.62;100.00
62708;BME280;48769;51.624;5.886;2024-01-15T00:59:10;100086.56;;;1.60;100.00
62708;BME280;48769;51.624;5.886;2024-01-15T01:01:39;100088.34;;;1.58;100.00
62708;BME280;48769;51.624;5.886;2024-01-15T01:04:08;100085.03;;;1.53;100.00
62708;BME280;48769;51.624;5.886;2024-01-15T01:06:34;100086.97;;;1.45;100.00
62708;BME280;48769;51.624;5.886;2024-01-15T01:08:59;100082.81;;;1.38;100.00
62708;BME280;48769;51.624;5.886;2024-01-15T01:11:25;100077.75;;;1.32;100.00
62708;BME280;48769;51.624;5.886;2024-01-15T01:13:50;100077.06;;;1.25;100.00
62708;BME280;48769;51.624;5.886;2024-01-15T01:16:15;100077.19;;;1.21;100.00
62708;BME280;48769;51.624;5.886;2024-01-15T01:18:41;100078.19;;;1.15;100.00
62708;BME280;48769;51.624;5.886;2024-01-15T01:21:06;100070.50;;;1.10;100.00
62708;BME280;48769;51.624;5.886;2024-01-15T01:23:31;100067.13;;;1.07;100.00
62708;BME280;48769;51.624;5.886;2024-01-15T01:25:57;100061.13;;;1.03;100.00
62708;BME280;48769;51.624;5.886;2024-01-15T01:28:22;100061.22;;;1.00;100.00
62708;BME280;48769;51.624;5.886;2024-01-15T01:30:48;100063.09;;;0.95;100.00
62708;BME280;48769;51.624;5.886;2024-01-15T01:33:14;100070.13;;;0.90;100.00
62708;BME280;48769;51.624;5.886;2024-01-15T01:35:39;100077.16;;;0.88;100.00
62708;BME280;48769;51.624;5.886;2024-01-15T01:38:04;100077.22;;;0.85;100.00
62708;BME280;48769;51.624;5.886;2024-01-15T01:40:30;100084.22;;;0.81;100.00
62708;BME280;48769;51.624;5.886;2024-01-15T01:42:55;100079.09;;;0.78;100.00
62708;BME280;48769;51.624;5.886;2024-01-15T01:45:20;100073.09;;;0.75;100.00
62708;BME280;48769;51.624;5.886;2024-01-15T01:47:46;100082.69;;;0.73;100.00
62708;BME280;48769;51.624;5.886;2024-01-15T01:50:12;100074.97;;;0.69;100.00
62708;BME280;48769;51.624;5.886;2024-01-15T01:52:38;100085.38;;;0.69;100.00
62708;BME280;48769;51.624;5.886;2024-01-15T01:55:06;100077.63;;;0.66;100.00
62708;BME280;48769;51.624;5.886;2024-01-15T01:57:33;100078.53;;;0.65;100.00
62708;BME280;48769;51.624;5.886;2024-01-15T01:59:59;100080.25;;;0.65;100.00
62708;BME280;48769;51.624;5.886;2024-01-15T02:02:25;100085.47;;;0.65;100.00
62708;BME280;48769;51.624;5.886;2024-01-15T02:04:50;100088.03;;;0.66;100.00
62708;BME280;48769;51.624;5.886;2024-01-15T02:07:16;100083.75;;;0.65;100.00
62708;BME280;48769;51.624;5.886;2024-01-15T02:09:44;100089.84;;;0.63;100.00
62708;BME280;48769;51.624;5.886;2024-01-15T02:12:09;100089.00;;;0.62;100.00
62708;BME280;48769;51.624;5.886;2024-01-15T02:14:34;100080.34;;;0.62;100.00
62708;BME280;48769;51.624;5.886;2024-01-15T02:17:00;100075.19;;;0.60;100.00
62708;BME280;48769;51.624;5.886;2024-01-15T02:19:25;100076.94;;;0.58;100.00
62708;BME280;48769;51.624;5.886;2024-01-15T02:21:50;100077.91;;;0.54;100.00
62708;BME280;48769;51.624;5.886;2024-01-15T02:24:16;100078.81;;;0.53;100.00
62708;BME280;48769;51.624;5.886;2024-01-15T02:26:42;100075.31;;;0.54;100.00
62708;BME280;48769;51.624;5.886;2024-01-15T02:29:07;100072.78;;;0.51;100.00
62708;BME280;48769;51.624;5.886;2024-01-15T02:31:36;100076.38;;;0.45;100.00
62708;BME280;48769;51.624;5.886;2024-01-15T02:34:02;100071.97;;;0.49;100.00
62708;BME280;48769;51.624;5.886;2024-01-15T02:36:27;100073.75;;;0.47;100.00
62708;BME280;48769;51.624;5.886;2024-01-15T02:38:52;100070.25;;;0.48;100.00
62708;BME280;48769;51.624;5.886;2024-01-15T02:41:18;100073.75;;;0.47;100.00
62708;BME280;48769;51.624;5.886;2024-01-15T02:43:43;100068.44;;;0.52;100.00
62708;BME280;48769;51.624;5.886;2024-01-15T02:46:08;100071.91;;;0.52;100.00
62708;BME280;48769;51.624;5.886;2024-01-15T02:48:34;100075.38;;;0.51;100.00
62708;BME280;48769;51.624;5.886;2024-01-15T02:51:01;100071.03;;;0.52;100.00
62708;BME280;48769;51.624;5.886;2024-01-15T02:53:26;100071.00;;;0.53;100.00
62708;BME280;48769;51.624;5.886;2024-01-15T02:55:51;100074.41;;;0.55;100.00
62708;BME280;48769;51.624;5.886;2024-01-15T02:58:17;100069.16;;;0.58;100.00
62708;BME280;48769;51.624;5.886;2024-01-15T03:00:42;100071.75;;;0.58;100.00
62708;BME280;48769;51.624;5.886;2024-01-15T03:03:07;100064.84;;;0.57;100.00
62708;BME280;48769;51.624;5.886;2024-01-15T03:05:33;100068.34;;;0.56;100.00
62708;BME280;48769;51.624;5.886;2024-01-15T03:07:58;100067.56;;;0.53;100.00
62708;BME280;48769;51.624;5.886;2024-01-15T03:10:24;100070.13;;;0.54;100.00
62708;BME280;48769;51.624;5.886;2024-01-15T03:12:49;100071.91;;;0.52;100.00
62708;BME280;48769;51.624;5.886;2024-01-15T03:15:14;100074.50;;;0.52;100.00
62708;BME280;48769;51.624;5.886;2024-01-15T03:17:41;100069.22;;;0.55;100.00
62708;BME280;48769;51.624;5.886;2024-01-15T03:20:08;100060.56;;;0.56;100.00
62708;BME280;48769;51.624;5.886;2024-01-15T03:22:33;100064.97;;;0.53;100.00
62708;BME280;48769;51.624;5.886;2024-01-15T03:24:59;100065.81;;;0.53;100.00
62708;BME280;48769;51.624;5.886;2024-01-15T03:27:24;100064.13;;;0.51;100.00
62708;BME280;48769;51.624;5.886;2024-01-15T03:29:51;100064.13;;;0.52;100.00
62708;BME280;48769;51.624;5.886;2024-01-15T03:32:16;100065.00;;;0.51;100.00
62708;BME280;48769;51.624;5.886;2024-01-15T03:34:42;100060.72;;;0.49;100.00
62708;BME280;48769;51.624;5.886;2024-01-15T03:37:07;100061.59;;;0.49;100.00
62708;BME280;48769;51.624;5.886;2024-01-15T03:39:32;100059.06;;;0.46;100.00
62708;BME280;48769;51.624;5.886;2024-01-15T03:41:57;100061.66;;;0.46;100.00
62708;BME280;48769;51.624;5.886;2024-01-15T03:44:23;100058.16;;;0.47;100.00
62708;BME280;48769;51.624;5.886;2024-01-15T03:46:48;100059.06;;;0.46;100.00
62708;BME280;48769;51.624;5.886;2024-01-15T03:49:13;100059.84;;;0.48;100.00
62708;BME280;48769;51.624;5.886;2024-01-15T03:51:39;100054.66;;;0.48;100.00
62708;BME280;48769;51.624;5.886;2024-01-15T03:54:04;100050.28;;;0.50;100.00
62708;BME280;48769;51.624;5.886;2024-01-15T03:56:29;100047.56;;;0.56;100.00
62708;BME280;48769;51.624;5.886;2024-01-15T03:58:55;100055.94;;;0.67;100.00
62708;BME280;48769;51.624;5.886;2024-01-15T04:01:20;100040.28;;;0.70;100.00
62708;BME280;48769;51.624;5.886;2024-01-15T04:03:45;100051.44;;;0.74;100.00
62708;BME280;48769;51.624;5.886;2024-01-15T04:06:11;100040.28;;;0.70;100.00
62708;BME280;48769;51.624;5.886;2024-01-15T04:08:36;100043.00;;;0.66;100.00
62708;BME280;48769;51.624;5.886;2024-01-15T04:11:01;100034.31;;;0.67;100.00
62708;BME280;48769;51.624;5.886;2024-01-15T04:13:27;100032.63;;;0.64;100.00
62708;BME280;48769;51.624;5.886;2024-01-15T04:15:52;100028.41;;;0.60;100.00
62708;BME280;48769;51.624;5.886;2024-01-15T04:18:18;100031.97;;;0.56;100.00
62708;BME280;48769;51.624;5.886;2024-01-15T04:20:43;100028.53;;;0.54;100.00
62708;BME280;48769;51.624;5.886;2024-01-15T04:23:09;100026.78;;;0.55;100.00
62708;BME280;48769;51.624;5.886;2024-01-15T04:25:34;100028.47;;;0.57;100.00
62708;BME280;48769;51.624;5.886;2024-01-15T04:27:59;100031.69;;;0.68;100.00
62708;BME280;48769;51.624;5.886;2024-01-15T04:30:25;100020.19;;;0.77;100.00
62708;BME280;48769;51.624;5.886;2024-01-15T04:32:50;100020.16;;;0.79;100.00
62708;BME280;48769;51.624;5.886;2024-01-15T04:35:15;100017.50;;;0.82;100.00
62708;BME280;48769;51.624;5.886;2024-01-15T04:37:41;100013.16;;;0.81;100.00
62708;BME280;48769;51.624;5.886;2024-01-15T04:40:07;100007.94;;;0.82;100.00
62708;BME280;48769;51.624;5.886;2024-01-15T04:42:32;100015.75;;;0.82;100.00
62708;BME280;48769;51.624;5.886;2024-01-15T04:44:58;100002.69;;;0.84;100.00
62708;BME280;48769;51.624;5.886;2024-01-15T04:47:23;100003.59;;;0.83;100.00
62708;BME280;48769;51.624;5.886;2024-01-15T04:49:48;99998.25;;;0.89;100.00
62708;BME280;48769;51.624;5.886;2024-01-15T04:52:14;100002.53;;;0.90;100.00
62708;BME280;48769;51.624;5.886;2024-01-15T04:54:40;99999.84;;;0.93;100.00
62708;BME280;48769;51.624;5.886;2024-01-15T04:57:05;99991.06;;;0.97;100.00
62708;BME280;48769;51.624;5.886;2024-01-15T04:59:31;99993.69;;;0.97;100.00
62708;BME280;48769;51.624;5.886;2024-01-15T05:01:56;99999.84;;;0.95;100.00
62708;BME280;48769;51.624;5.886;2024-01-15T05:04:21;99993.81;;;0.92;100.00
62708;BME280;48769;51.624;5.886;2024-01-15T05:06:47;99996.44;;;0.91;100.00
62708;BME280;48769;51.624;5.886;2024-01-15T05:09:12;100000.78;;;0.90;100.00
62708;BME280;48769;51.624;5.886;2024-01-15T05:11:39;99995.63;;;0.89;100.00
62708;BME280;48769;51.624;5.886;2024-01-15T05:14:04;99995.63;;;0.89;100.00
62708;BME280;48769;51.624;5.886;2024-01-15T05:16:29;99998.09;;;0.95;100.00
62708;BME280;48769;51.624;5.886;2024-01-15T05:18:55;99992.72;;;1.01;100.00
62708;BME280;48769;51.624;5.886;2024-01-15T05:21:20;99992.56;;;1.07;100.00
62708;BME280;48769;51.624;5.886;2024-01-15T05:23:45;99992.47;;;1.10;100.00
62708;BME280;48769;51.624;5.886;2024-01-15T05:26:10;99994.97;;;1.13;100.00
62708;BME280;48769;51.624;5.886;2024-01-15T05:28:36;100000.19;;;1.13;100.00
62708;BME280;48769;51.624;5.886;2024-01-15T05:31:01;100007.03;;;1.17;100.00
62708;BME280;48769;51.624;5.886;2024-01-15T05:33:27;100003.78;;;1.09;100.00
62708;BME280;48769;51.624;5.886;2024-01-15T05:35:52;99999.38;;;1.11;100.00
62708;BME280;48769;51.624;5.886;2024-01-15T05:38:19;99993.28;;;1.12;100.00
62708;BME280;48769;51.624;5.886;2024-01-15T05:40:44;99997.66;;;1.10;100.00
62708;BME280;48769;51.624;5.886;2024-01-15T05:43:09;99994.25;;;1.08;100.00
62708;BME280;48769;51.624;5.886;2024-01-15T05:45:35;99987.44;;;1.04;100.00
62708;BME280;48769;51.624;5.886;2024-01-15T05:48:01;99984.03;;;1.02;100.00
62708;BME280;48769;51.624;5.886;2024-01-15T05:50:26;99990.91;;;1.03;100.00
62708;BME280;48769;51.624;5.886;2024-01-15T05:52:51;99986.63;;;1.02;100.00
62708;BME280;48769;51.624;5.886;2024-01-15T05:55:17;99986.66;;;1.01;100.00
62708;BME280;48769;51.624;5.886;2024-01-15T05:57:44;99980.59;;;1.00;100.00
62708;BME280;48769;51.624;5.886;2024-01-15T06:00:09;99984.03;;;1.02;100.00
62708;BME280;48769;51.624;5.886;2024-01-15T06:02:37;99982.19;;;1.06;100.00
62708;BME280;48769;51.624;5.886;2024-01-15T06:05:02;99983.94;;;1.05;100.00
62708;BME280;48769;51.624;5.886;2024-01-15T06:07:28;99983.94;;;1.05;100.00
62708;BME280;48769;51.624;5.886;2024-01-15T06:09:53;99978.97;;;0.96;100.00
62708;BME280;48769;51.624;5.886;2024-01-15T06:12:19;99975.41;;;1.00;100.00
62708;BME280;48769;51.624;5.886;2024-01-15T06:14:44;99973.63;;;1.01;100.00
62708;BME280;48769;51.624;5.886;2024-01-15T06:17:09;99968.50;;;0.99;100.00
62708;BME280;48769;51.624;5.886;2024-01-15T06:19:36;99958.16;;;0.96;100.00
62708;BME280;48769;51.624;5.886;2024-01-15T06:22:01;99960.00;;;0.92;100.00
62708;BME280;48769;51.624;5.886;2024-01-15T06:24:27;99967.81;;;0.92;100.00
62708;BME280;48769;51.624;5.886;2024-01-15T06:26:52;99954.81;;;0.91;100.00
62708;BME280;48769;51.624;5.886;2024-01-15T06:29:18;99959.16;;;0.92;100.00
62708;BME280;48769;51.624;5.886;2024-01-15T06:31:43;99957.56;;;0.86;100.00
62708;BME280;48769;51.624;5.886;2024-01-15T06:34:09;99954.06;;;0.87;100.00
62708;BME280;48769;51.624;5.886;2024-01-15T06:36:34;99962.59;;;0.92;100.00
62708;BME280;48769;51.624;5.886;2024-01-15T06:38:59;99953.06;;;0.93;100.00
62708;BME280;48769;51.624;5.886;2024-01-15T06:41:25;99960.81;;;0.95;100.00
62708;BME280;48769;51.624;5.886;2024-01-15T06:43:50;99959.84;;;0.99;100.00
62708;BME280;48769;51.624;5.886;2024-01-15T06:46:20;99956.41;;;0.98;100.00
62708;BME280;48769;51.624;5.886;2024-01-15T06:48:46;99949.38;;;1.00;100.00
62708;BME280;48769;51.624;5.886;2024-01-15T06:51:11;99956.41;;;0.98;100.00
62708;BME280;48769;51.624;5.886;2024-01-15T06:53:37;99958.09;;;0.99;100.00
62708;BME280;48769;51.624;5.886;2024-01-15T06:56:03;99965.84;;;1.01;100.00
62708;BME280;48769;51.624;5.886;2024-01-15T06:58:28;99962.41;;;1.00;100.00
62708;BME280;48769;51.624;5.886;2024-01-15T07:00:53;99960.75;;;0.98;100.00
62708;BME280;48769;51.624;5.886;2024-01-15T07:03:19;99961.69;;;0.95;100.00
62708;BME280;48769;51.624;5.886;2024-01-15T07:05:44;99957.28;;;0.97;100.00
62708;BME280;48769;51.624;5.886;2024-01-15T07:08:09;99955.56;;;0.98;100.00
62708;BME280;48769;51.624;5.886;2024-01-15T07:10:35;99964.22;;;0.97;100.00
62708;BME280;48769;51.624;5.886;2024-01-15T07:13:00;99960.78;;;0.96;100.00
62708;BME280;48769;51.624;5.886;2024-01-15T07:15:25;99958.09;;;0.99;100.00
62708;BME280;48769;51.624;5.886;2024-01-15T07:17:51;99958.16;;;0.96;100.00
62708;BME280;48769;51.624;5.886;2024-01-15T07:20:16;99966.03;;;0.95;100.00
62708;BME280;48769;51.624;5.886;2024-01-15T07:22:42;99965.06;;;0.97;100.00
62708;BME280;48769;51.624;5.886;2024-01-15T07:25:07;99947.69;;;0.99;100.00
62708;BME280;48769;51.624;5.886;2024-01-15T07:27:33;99949.53;;;0.94;100.00
62708;BME280;48769;51.624;5.886;2024-01-15T07:29:58;99942.50;;;0.99;100.00
62708;BME280;48769;51.624;5.886;2024-01-15T07:32:24;99947.69;;;0.99;100.00
62708;BME280;48769;51.624;5.886;2024-01-15T07:34:49;99942.50;;;0.99;100.00
62708;BME280;48769;51.624;5.886;2024-01-15T07:37:15;99937.22;;;1.01;100.00
62708;BME280;48769;51.624;5.886;2024-01-15T07:39:40;99946.75;;;1.02;100.00
62708;BME280;48769;51.624;5.886;2024-01-15T07:42:05;99938.91;;;1.03;100.00
62708;BME280;48769;51.624;5.886;2024-01-15T07:44:31;99943.31;;;1.01;100.00
62708;BME280;48769;51.624;5.886;2024-01-15T07:46:56;99950.22;;;1.02;100.00
62708;BME280;48769;51.624;5.886;2024-01-15T07:49:21;99961.44;;;1.04;100.00
62708;BME280;48769;51.624;5.886;2024-01-15T07:51:48;99968.34;;;1.05;100.00
62708;BME280;48769;51.624;5.886;2024-01-15T07:54:14;99983.94;;;1.05;100.00
62708;BME280;48769;51.624;5.886;2024-01-15T07:57:00;99996.13;;;1.03;100.00
62708;BME280;48769;51.624;5.886;2024-01-15T07:59:26;99983.03;;;1.06;100.00
62708;BME280;48769;51.624;5.886;2024-01-15T08:01:52;99991.75;;;1.05;100.00
62708;BME280;48769;51.624;5.886;2024-01-15T08:04:17;99982.16;;;1.07;100.00
62708;BME280;48769;51.624;5.886;2024-01-15T08:06:43;99976.84;;;1.10;100.00
62708;BME280;48769;51.624;5.886;2024-01-15T08:09:08;99973.31;;;1.13;100.00
62708;BME280;48769;51.624;5.886;2024-01-15T08:11:34;99986.38;;;1.11;100.00
62708;BME280;48769;51.624;5.886;2024-01-15T08:13:59;99981.97;;;1.13;100.00
62708;BME280;48769;51.624;5.886;2024-01-15T08:16:24;99981.13;;;1.13;100.00
62708;BME280;48769;51.624;5.886;2024-01-15T08:18:50;99989.84;;;1.12;100.00
62708;BME280;48769;51.624;5.886;2024-01-15T08:21:15;99989.06;;;1.08;100.00
62708;BME280;48769;51.624;5.886;2024-01-15T08:23:41;99987.25;;;1.10;100.00
62708;BME280;48769;51.624;5.886;2024-01-15T08:26:07;99987.91;;;1.19;100.00
62708;BME280;48769;51.624;5.886;2024-01-15T08:28:32;99988.59;;;1.25;100.00
62708;BME280;48769;51.624;5.886;2024-01-15T08:30:58;99991.25;;;1.24;100.00
62708;BME280;48769;51.624;5.886;2024-01-15T08:33:23;99991.22;;;1.25;100.00
62708;BME280;48769;51.624;5.886;2024-01-15T08:35:48;99991.97;;;1.29;100.00
62708;BME280;48769;51.624;5.886;2024-01-15T08:38:13;99992.06;;;1.26;100.00
62708;BME280;48769;51.624;5.886;2024-01-15T08:40:39;99997.25;;;1.26;100.00
62708;BME280;48769;51.624;5.886;2024-01-15T08:43:04;99994.75;;;1.23;100.00
62708;BME280;48769;51.624;5.886;2024-01-15T08:45:31;100003.47;;;1.20;100.00
62708;BME280;48769;51.624;5.886;2024-01-15T08:47:57;99999.22;;;1.17;100.00
62708;BME280;48769;51.624;5.886;2024-01-15T08:50:22;100010.50;;;1.16;100.00
62708;BME280;48769;51.624;5.886;2024-01-15T08:52:47;100003.47;;;1.20;100.00
62708;BME280;48769;51.624;5.886;2024-01-15T08:55:13;100003.69;;;1.12;100.00
62708;BME280;48769;51.624;5.886;2024-01-15T08:57:38;100005.59;;;1.06;100.00
62708;BME280;48769;51.624;5.886;2024-01-15T09:00:05;100004.66;;;1.08;100.00
62708;BME280;48769;51.624;5.886;2024-01-15T09:02:34;100009.66;;;1.16;100.00
62708;BME280;48769;51.624;5.886;2024-01-15T09:05:00;100002.63;;;1.20;100.00
62708;BME280;48769;51.624;5.886;2024-01-15T09:07:25;100016.47;;;1.22;100.00
62708;BME280;48769;51.624;5.886;2024-01-15T09:09:52;100026.88;;;1.22;100.00
62708;BME280;48769;51.624;5.886;2024-01-15T09:12:17;100029.63;;;1.15;100.00
62708;BME280;48769;51.624;5.886;2024-01-15T09:14:43;100025.56;;;1.05;100.00
62708;BME280;48769;51.624;5.886;2024-01-15T09:17:09;100027.31;;;1.03;100.00
62708;BME280;48769;51.624;5.886;2024-01-15T09:19:34;100034.19;;;1.07;100.00
62708;BME280;48769;51.624;5.886;2024-01-15T09:22:00;100027.31;;;1.03;100.00
62708;BME280;48769;51.624;5.886;2024-01-15T09:24:25;100012.72;;;0.99;100.00
62708;BME280;48769;51.624;5.886;2024-01-15T09:26:50;100005.81;;;0.97;100.00
62708;BME280;48769;51.624;5.886;2024-01-15T09:29:16;99996.19;;;1.02;100.00
62708;BME280;48769;51.624;5.886;2024-01-15T09:31:43;100001.25;;;1.06;100.00
62708;BME280;48769;51.624;5.886;2024-01-15T09:34:08;100004.81;;;1.02;100.00
62708;BME280;48769;51.624;5.886;2024-01-15T09:36:39;100004.06;;;0.99;100.00
62708;BME280;48769;51.624;5.886;2024-01-15T09:39:05;100014.31;;;1.03;100.00
62708;BME280;48769;51.624;5.886;2024-01-15T09:41:34;100016.06;;;1.04;100.00
62708;BME280;48769;51.624;5.886;2024-01-15T09:44:00;100020.19;;;1.11;100.00
62708;BME280;48769;51.624;5.886;2024-01-15T09:46:27;100001.84;;;1.16;100.00
62708;BME280;48769;51.624;5.886;2024-01-15T09:48:53;100015.53;;;1.24;100.00
62708;BME280;48769;51.624;5.886;2024-01-15T09:51:19;100025.41;;;1.44;100.00
62708;BME280;48769;51.624;5.886;2024-01-15T09:53:46;100024.47;;;1.47;100.00
62708;BME280;48769;51.624;5.886;2024-01-15T09:56:12;100021.13;;;1.42;100.00
62708;BME280;48769;51.624;5.886;2024-01-15T09:58:38;100027.91;;;1.47;100.00
62708;BME280;48769;51.624;5.886;2024-01-15T10:01:04;100027.88;;;1.49;100.00
62708;BME280;48769;51.624;5.886;2024-01-15T10:03:29;100029.69;;;1.45;100.00
62708;BME280;48769;51.624;5.886;2024-01-15T10:05:58;100026.31;;;1.42;100.00
62708;BME280;48769;51.624;5.886;2024-01-15T10:08:25;100028.09;;;1.41;100.00
62708;BME280;48769;51.624;5.886;2024-01-15T10:10:50;100032.97;;;1.53;100.00
62708;BME280;48769;51.624;5.886;2024-01-15T10:13:15;100017.53;;;1.77;100.00
62708;BME280;48769;51.624;5.886;2024-01-15T10:15:41;100009.47;;;2.14;100.00
62708;BME280;48769;51.624;5.886;2024-01-15T10:18:08;100006.94;;;2.13;100.00
62708;BME280;48769;51.624;5.886;2024-01-15T10:20:33;100005.00;;;2.19;100.00
62708;BME280;48769;51.624;5.886;2024-01-15T10:22:58;100007.81;;;2.41;100.00
62708;BME280;48769;51.624;5.886;2024-01-15T10:25:24;100001.94;;;2.88;100.00
62708;BME280;48769;51.624;5.886;2024-01-15T10:28:02;100012.16;;;2.94;100.00
62708;BME280;48769;51.624;5.886;2024-01-15T10:30:28;100009.88;;;2.58;100.00
62708;BME280;48769;51.624;5.886;2024-01-15T10:33:01;100009.22;;;2.51;100.00
62708;BME280;48769;51.624;5.886;2024-01-15T10:35:29;100023.25;;;2.47;100.00
62708;BME280;48769;51.624;5.886;2024-01-15T10:37:54;100007.03;;;2.38;100.00
62708;BME280;48769;51.624;5.886;2024-01-15T10:40:20;100004.47;;;2.36;100.00
62708;BME280;48769;51.624;5.886;2024-01-15T10:42:45;100011.03;;;2.21;100.00
62708;BME280;48769;51.624;5.886;2024-01-15T10:45:13;100007.03;;;2.09;100.00
62708;BME280;48769;51.624;5.886;2024-01-15T10:47:38;100002.59;;;2.41;100.00
62708;BME280;48769;51.624;5.886;2024-01-15T10:50:05;100005.56;;;3.09;100.00
62708;BME280;48769;51.624;5.886;2024-01-15T10:52:33;100010.47;;;3.18;100.00
62708;BME280;48769;51.624;5.886;2024-01-15T10:54:59;100000.13;;;3.15;100.00
62708;BME280;48769;51.624;5.886;2024-01-15T10:57:26;100002.59;;;2.94;100.00
62708;BME280;48769;51.624;5.886;2024-01-15T10:59:52;99996.28;;;2.75;100.00
62708;BME280;48769;51.624;5.886;2024-01-15T11:02:17;99998.69;;;2.81;100.00
62708;BME280;48769;51.624;5.886;2024-01-15T11:04:43;99995.06;;;2.85;100.00
62708;BME280;48769;51.624;5.886;2024-01-15T11:07:10;99996.97;;;3.32;100.00
62708;BME280;48769;51.624;5.886;2024-01-15T11:09:36;99996.28;;;3.50;100.00
62708;BME280;48769;51.624;5.886;2024-01-15T11:12:13;100002.94;;;3.59;100.00
62708;BME280;48769;51.624;5.886;2024-01-15T11:14:49;100008.72;;;3.67;100.00
62708;BME280;48769;51.624;5.886;2024-01-15T11:17:16;100005.06;;;3.47;100.00
62708;BME280;48769;51.624;5.886;2024-01-15T11:22:11;100009.84;;;3.11;100.00
62708;BME280;48769;51.624;5.886;2024-01-15T11:24:56;100006.22;;;3.40;100.00
62708;BME280;48769;51.624;5.886;2024-01-15T11:27:43;100003.50;;;3.67;100.00
62708;BME280;48769;51.624;5.886;2024-01-15T11:30:10;100003.41;;;3.70;100.00
62708;BME280;48769;51.624;5.886;2024-01-15T11:32:36;100008.56;;;3.71;100.00
62708;BME280;48769;51.624;5.886;2024-01-15T11:35:02;100005.94;;;3.48;100.00
62708;BME280;48769;51.624;5.886;2024-01-15T11:40:36;100000.81;;;3.93;100.00
62708;BME280;48769;51.624;5.886;2024-01-15T11:43:04;100009.66;;;3.89;100.00
62708;BME280;48769;51.624;5.886;2024-01-15T11:45:30;100007.63;;;3.74;100.00
62708;BME280;48769;51.624;5.886;2024-01-15T11:48:15;100007.22;;;3.85;100.00
62708;BME280;48769;51.624;5.886;2024-01-15T11:50:49;100016.22;;;3.76;100.00
62708;BME280;48769;51.624;5.886;2024-01-15T11:53:40;100015.94;;;3.60;100.00
62708;BME280;48769;51.624;5.886;2024-01-15T11:56:14;100017.59;;;3.63;100.00
62708;BME280;48769;51.624;5.886;2024-01-15T11:58:40;100005.78;;;3.53;100.00
62708;BME280;48769;51.624;5.886;2024-01-15T12:01:05;100009.22;;;3.30;100.00
62708;BME280;48769;51.624;5.886;2024-01-15T12:03:32;100017.63;;;3.13;100.00
62708;BME280;48769;51.624;5.886;2024-01-15T12:05:58;100015.47;;;2.99;100.00
62708;BME280;48769;51.624;5.886;2024-01-15T12:08:25;100019.38;;;2.86;100.00
62708;BME280;48769;51.624;5.886;2024-01-15T12:10:51;100021.97;;;2.87;100.00
62708;BME280;48769;51.624;5.886;2024-01-15T12:13:17;100035.91;;;2.86;100.00
62708;BME280;48769;51.624;5.886;2024-01-15T12:15:43;100027.28;;;2.84;100.00
62708;BME280;48769;51.624;5.886;2024-01-15T12:18:12;100025.72;;;2.78;100.00
62708;BME280;48769;51.624;5.886;2024-01-15T12:20:39;100021.75;;;2.67;100.00
62708;BME280;48769;51.624;5.886;2024-01-15T12:23:05;100029.97;;;2.54;100.00
62708;BME280;48769;51.624;5.886;2024-01-15T12:25:34;100036.22;;;2.49;100.00
62708;BME280;48769;51.624;5.886;2024-01-15T12:28:00;100032.78;;;2.48;100.00
62708;BME280;48769;51.624;5.886;2024-01-15T12:30:30;100038.97;;;2.44;100.00
62708;BME280;48769;51.624;5.886;2024-01-15T12:32:57;100044.00;;;2.50;100.00
62708;BME280;48769;51.624;5.886;2024-01-15T12:35:24;100044.59;;;2.58;100.00
62708;BME280;48769;51.624;5.886;2024-01-15T12:37:51;100050.63;;;2.61;100.00
62708;BME280;48769;51.624;5.886;2024-01-15T12:40:19;100046.56;;;2.52;100.00
62708;BME280;48769;51.624;5.886;2024-01-15T12:42:45;100051.72;;;2.53;100.00
62708;BME280;48769;51.624;5.886;2024-01-15T12:45:11;100053.25;;;2.61;100.00
62708;BME280;48769;51.624;5.886;2024-01-15T12:47:38;100058.38;;;2.64;100.00
62708;BME280;48769;51.624;5.886;2024-01-15T12:50:08;100058.88;;;2.75;100.00
62708;BME280;48769;51.624;5.886;2024-01-15T12:52:34;100059.22;;;2.64;100.00